sensor_id;sensor_type;location;lat;lon;timestamp;temperature;humidity
31729;DHT22;18309;43.658;1.312;2023-04-27T00:00:31;17.90;99.90
31729;DHT22;18309;43.658;1.312;2023-04-27T00:02:56;17.90;99.90
31729;DHT22;18309;43.658;1.312;2023-04-27T00:05:22;17.80;99.90
31729;DHT22;18309;43.658;1.312;2023-04-27T00:07:48;17.80;99.90
31729;DHT22;18309;43.658;1.312;2023-04-27T00:10:13;17.80;99.90
31729;DHT22;18309;43.658;1.312;2023-04-27T00:12:39;17.70;99.90
31729;DHT22;18309;43.658;1.312;2023-04-27T00:15:07;17.70;99.90
31729;DHT22;18309;43.658;1.312;2023-04-27T00:17:33;17.70;99.90
31729;DHT22;18309;43.658;1.312;2023-04-27T00:19:58;17.70;99.90
31729;DHT22;18309;43.658;1.312;2023-04-27T00:22:25;17.70;99.90
31729;DHT22;18309;43.658;1.312;2023-04-27T00:24:50;17.60;99.90
31729;DHT22;18309;43.658;1.312;2023-04-27T00:27:16;17.70;99.90
31729;DHT22;18309;43.658;1.312;2023-04-27T00:29:42;17.70;99.90
31729;DHT22;18309;43.658;1.312;2023-04-27T00:32:09;17.60;99.90
31729;DHT22;18309;43.658;1.312;2023-04-27T00:34:35;17.60;99.90
31729;DHT22;18309;43.658;1.312;2023-04-27T00:37:01;17.60;99.90
31729;DHT22;18309;43.658;1.312;2023-04-27T00:39:26;17.60;99.90
31729;DHT22;18309;43.658;1.312;2023-04-27T00:41:52;17.60;99.90
31729;DHT22;18309;43.658;1.312;2023-04-27T00:44:25;17.50;99.90
31729;DHT22;18309;43.658;1.312;2023-04-27T00:46:52;17.60;99.90
31729;DHT22;18309;43.658;1.312;2023-04-27T00:49:19;17.60;99.90
31729;DHT22;18309;43.658;1.312;2023-04-27T00:51:44;17.60;99.90
31729;DHT22;18309;43.658;1.312;2023-04-27T00:54:11;17.50;99.90
31729;DHT22;18309;43.658;1.312;2023-04-27T00:56:37;17.60;99.90
31729;DHT22;18309;43.658;1.312;2023-04-27T00:59:03;17.50;99.90
31729;DHT22;18309;43.658;1.312;2023-04-27T01:01:29;17.60;99.90
31729;DHT22;18309;43.658;1.312;2023-04-27T01:03:55;17.60;99.90
31729;DHT22;18309;43.658;1.312;2023-04-27T01:06:20;17.50;99.90
31729;DHT22;18309;43.658;1.312;2023-04-27T01:08:46;17.50;99.90
31729;DHT22;18309;43.658;1.312;2023-04-27T01:11:12;17.50;99.90
31729;DHT22;18309;43.658;1.312;2023-04-27T01:13:37;17.50;99.90
31729;DHT22;18309;43.658;1.312;2023-04-27T01:16:03;17.50;99.90
31729;DHT22;18309;43.658;1.312;2023-04-27T01:18:30;17.50;99.90
31729;DHT22;18309;43.658;1.312;2023-04-27T01:20:58;17.50;99.90
31729;DHT22;18309;43.658;1.312;2023-04-27T01:23:24;17.50;99.90
31729;DHT22;18309;43.658;1.312;2023-04-27T01:25:50;17.50;99.90
31729;DHT22;18309;43.658;1.312;2023-04-27T01:28:16;17.50;99.90
31729;DHT22;18309;43.658;1.312;2023-04-27T01:30:42;17.50;99.90
31729;DHT22;18309;43.658;1.312;2023-04-27T01:33:07;17.50;99.90
31729;DHT22;18309;43.658;1.312;2023-04-27T01:35:33;17.50;99.90
31729;DHT22;18309;43.658;1.312;2023-04-27T01:37:59;17.50;99.90
31729;DHT22;18309;43.658;1.312;2023-04-27T01:40:24;17.50;99.90
31729;DHT22;18309;43.658;1.312;2023-04-27T01:42:50;17.50;99.90
31729;DHT22;18309;43.658;1.312;2023-04-27T01:45:16;17.50;99.90
31729;DHT22;18309;43.658;1.312;2023-04-27T01:47:41;17.50;99.90
31729;DHT22;18309;43.658;1.312;2023-04-27T01:50:07;17.50;99.90
31729;DHT22;18309;43.658;1.312;2023-04-27T01:52:33;17.50;99.90
31729;DHT22;18309;43.658;1.312;2023-04-27T01:54:59;17.50;99.90
31729;DHT22;18309;43.658;1.312;2023-04-27T01:57:25;17.50;99.90
31729;DHT22;18309;43.658;1.312;2023-04-27T01:59:51;17.50;99.90
31729;DHT22;18309;43.658;1.312;2023-04-27T02:02:16;17.50;99.90
31729;DHT22;18309;43.658;1.312;2023-04-27T02:04:42;17.40;99.90
31729;DHT22;18309;43.658;1.312;2023-04-27T02:07:09;17.40;99.90
31729;DHT22;18309;43.658;1.312;2023-04-27T02:09:35;17.40;99.90
31729;DHT22;18309;43.658;1.312;2023-04-27T02:12:01;17.40;99.90
31729;DHT22;18309;43.658;1.312;2023-04-27T02:14:26;17.40;99.90
31729;DHT22;18309;43.658;1.312;2023-04-27T02:16:52;17.40;99.90
31729;DHT22;18309;43.658;1.312;2023-04-27T02:19:18;17.40;99.90
31729;DHT22;18309;43.658;1.312;2023-04-27T02:21:43;17.40;99.90
31729;DHT22;18309;43.658;1.312;2023-04-27T02:24:09;17.40;99.90
31729;DHT22;18309;43.658;1.312;2023-04-27T02:26:35;17.40;99.90
31729;DHT22;18309;43.658;1.312;2023-04-27T02:29:01;17.40;99.90
31729;DHT22;18309;43.658;1.312;2023-04-27T02:31:28;17.40;99.90
31729;DHT22;18309;43.658;1.312;2023-04-27T02:33:53;17.40;99.90
31729;DHT22;18309;43.658;1.312;2023-04-27T02:36:20;17.40;99.90
31729;DHT22;18309;43.658;1.312;2023-04-27T02:38:45;17.40;99.90
31729;DHT22;18309;43.658;1.312;2023-04-27T02:41:11;17.40;99.90
31729;DHT22;18309;43.658;1.312;2023-04-27T02:43:37;17.40;99.90
31729;DHT22;18309;43.658;1.312;2023-04-27T02:46:03;17.30;99.90
31729;DHT22;18309;43.658;1.312;2023-04-27T02:48:32;17.30;99.90
31729;DHT22;18309;43.658;1.312;2023-04-27T02:50:58;17.30;99.90
31729;DHT22;18309;43.658;1.312;2023-04-27T02:53:23;17.30;99.90
31729;DHT22;18309;43.658;1.312;2023-04-27T02:55:49;17.30;99.90
31729;DHT22;18309;43.658;1.312;2023-04-27T02:58:15;17.30;99.90
31729;DHT22;18309;43.658;1.312;2023-04-27T03:00:42;17.30;99.90
31729;DHT22;18309;43.658;1.312;2023-04-27T03:03:08;17.30;99.90
31729;DHT22;18309;43.658;1.312;2023-04-27T03:05:34;17.30;99.90
31729;DHT22;18309;43.658;1.312;2023-04-27T03:08:01;17.30;99.90
31729;DHT22;18309;43.658;1.312;2023-04-27T03:10:27;17.30;99.90
31729;DHT22;18309;43.658;1.312;2023-04-27T03:12:53;17.30;99.90
31729;DHT22;18309;43.658;1.312;2023-04-27T03:15:18;17.30;99.90
31729;DHT22;18309;43.658;1.312;2023-04-27T03:17:45;17.30;99.90
31729;DHT22;18309;43.658;1.312;2023-04-27T03:20:11;17.30;99.90
31729;DHT22;18309;43.658;1.312;2023-04-27T03:22:37;17.30;99.90
31729;DHT22;18309;43.658;1.312;2023-04-27T03:25:03;17.30;99.90
31729;DHT22;18309;43.658;1.312;2023-04-27T03:27:29;17.30;99.90
31729;DHT22;18309;43.658;1.312;2023-04-27T03:29:55;17.30;99.90
31729;DHT22;18309;43.658;1.312;2023-04-27T03:32:21;17.30;99.90
31729;DHT22;18309;43.658;1.312;2023-04-27T03:34:47;17.30;99.90
31729;DHT22;18309;43.658;1.312;2023-04-27T03:37:12;17.30;99.90
31729;DHT22;18309;43.658;1.312;2023-04-27T03:39:38;17.30;99.90
31729;DHT22;18309;43.658;1.312;2023-04-27T03:42:04;17.30;99.90
31729;DHT22;18309;43.658;1.312;2023-04-27T03:44:30;17.30;99.90
31729;DHT22;18309;43.658;1.312;2023-04-27T03:46:57;17.30;99.90
31729;DHT22;18309;43.658;1.312;2023-04-27T03:49:23;17.30;99.90
31729;DHT22;18309;43.658;1.312;2023-04-27T03:51:49;17.30;99.90
31729;DHT22;18309;43.658;1.312;2023-04-27T03:54:15;17.30;99.90
31729;DHT22;18309;43.658;1.312;2023-04-27T03:56:40;17.30;99.90
31729;DHT22;18309;43.658;1.312;2023-04-27T03:59:06;17.30;99.90
31729;DHT22;18309;43.658;1.312;2023-04-27T04:01:32;17.30;99.90
31729;DHT22;18309;43.658;1.312;2023-04-27T04:03:58;17.30;99.90
31729;DHT22;18309;43.658;1.312;2023-04-27T04:06:24;17.20;99.90
31729;DHT22;18309;43.658;1.312;2023-04-27T04:08:50;17.20;99.90
31729;DHT22;18309;43.658;1.312;2023-04-27T04:11:16;17.20;99.90
31729;DHT22;18309;43.658;1.312;2023-04-27T04:13:41;17.20;99.90
31729;DHT22;18309;43.658;1.312;2023-04-27T04:16:08;17.20;99.90
31729;DHT22;18309;43.658;1.312;2023-04-27T04:18:35;17.20;99.90
31729;DHT22;18309;43.658;1.312;2023-04-27T04:21:01;17.20;99.90
31729;DHT22;18309;43.658;1.312;2023-04-27T04:23:28;17.20;99.90
31729;DHT22;18309;43.658;1.312;2023-04-27T04:25:55;17.10;99.90
31729;DHT22;18309;43.658;1.312;2023-04-27T04:28:21;17.10;99.90
31729;DHT22;18309;43.658;1.312;2023-04-27T04:30:49;17.10;99.90
31729;DHT22;18309;43.658;1.312;2023-04-27T04:33:15;17.10;99.90
31729;DHT22;18309;43.658;1.312;2023-04-27T04:35:42;17.20;99.90
31729;DHT22;18309;43.658;1.312;2023-04-27T04:38:11;17.10;99.90
31729;DHT22;18309;43.658;1.312;2023-04-27T04:40:38;17.10;99.90
31729;DHT22;18309;43.658;1.312;2023-04-27T04:43:04;17.10;99.90
31729;DHT22;18309;43.658;1.312;2023-04-27T04:45:30;17.10;99.90
31729;DHT22;18309;43.658;1.312;2023-04-27T04:47:57;17.20;99.90
31729;DHT22;18309;43.658;1.312;2023-04-27T04:50:22;17.10;99.90
31729;DHT22;18309;43.658;1.312;2023-04-27T04:52:48;17.10;99.90
31729;DHT22;18309;43.658;1.312;2023-04-27T04:55:14;17.10;99.90
31729;DHT22;18309;43.658;1.312;2023-04-27T04:57:40;17.20;99.90
31729;DHT22;18309;43.658;1.312;2023-04-27T05:00:06;17.10;99.90
31729;DHT22;18309;43.658;1.312;2023-04-27T05:02:38;17.10;99.90
31729;DHT22;18309;43.658;1.312;2023-04-27T05:05:04;17.10;99.90
31729;DHT22;18309;43.658;1.312;2023-04-27T05:07:32;17.10;99.90
31729;DHT22;18309;43.658;1.312;2023-04-27T05:09:58;17.10;99.90
31729;DHT22;18309;43.658;1.312;2023-04-27T05:12:23;17.10;99.90
31729;DHT22;18309;43.658;1.312;2023-04-27T05:14:50;17.10;99.90
31729;DHT22;18309;43.658;1.312;2023-04-27T05:17:16;17.10;99.90
31729;DHT22;18309;43.658;1.312;2023-04-27T05:19:42;17.00;99.90
31729;DHT22;18309;43.658;1.312;2023-04-27T05:22:07;17.10;99.90
31729;DHT22;18309;43.658;1.312;2023-04-27T05:24:33;17.00;99.90
31729;DHT22;18309;43.658;1.312;2023-04-27T05:26:58;17.10;99.90
31729;DHT22;18309;43.658;1.312;2023-04-27T05:29:24;17.00;99.90
31729;DHT22;18309;43.658;1.312;2023-04-27T05:31:51;17.00;99.90
31729;DHT22;18309;43.658;1.312;2023-04-27T05:34:18;17.10;99.90
31729;DHT22;18309;43.658;1.312;2023-04-27T05:36:43;17.00;99.90
31729;DHT22;18309;43.658;1.312;2023-04-27T05:39:11;17.10;99.90
31729;DHT22;18309;43.658;1.312;2023-04-27T05:41:38;17.00;99.90
31729;DHT22;18309;43.658;1.312;2023-04-27T05:44:04;17.10;99.90
31729;DHT22;18309;43.658;1.312;2023-04-27T05:46:31;17.10;99.90
31729;DHT22;18309;43.658;1.312;2023-04-27T05:48:57;17.10;99.90
31729;DHT22;18309;43.658;1.312;2023-04-27T05:51:23;17.10;99.90
31729;DHT22;18309;43.658;1.312;2023-04-27T05:53:49;17.10;99.90
31729;DHT22;18309;43.658;1.312;2023-04-27T05:56:15;17.10;99.90
31729;DHT22;18309;43.658;1.312;2023-04-27T05:58:40;17.10;99.90
31729;DHT22;18309;43.658;1.312;2023-04-27T06:01:07;17.10;99.90
31729;DHT22;18309;43.658;1.312;2023-04-27T06:03:32;17.10;99.90
31729;DHT22;18309;43.658;1.312;2023-04-27T06:05:59;17.10;99.90
31729;DHT22;18309;43.658;1.312;2023-04-27T06:08:25;17.10;99.90
31729;DHT22;18309;43.658;1.312;2023-04-27T06:10:53;17.10;99.90
31729;DHT22;18309;43.658;1.312;2023-04-27T06:13:19;17.10;99.90
31729;DHT22;18309;43.658;1.312;2023-04-27T06:15:45;17.10;99.90
31729;DHT22;18309;43.658;1.312;2023-04-27T06:18:12;17.10;99.90
31729;DHT22;18309;43.658;1.312;2023-04-27T06:20:38;17.10;99.90
31729;DHT22;18309;43.658;1.312;2023-04-27T06:23:04;17.10;99.90
31729;DHT22;18309;43.658;1.312;2023-04-27T06:25:30;17.10;99.90
31729;DHT22;18309;43.658;1.312;2023-04-27T06:27:56;16.90;99.90
31729;DHT22;18309;43.658;1.312;2023-04-27T06:30:23;16.90;99.90
31729;DHT22;18309;43.658;1.312;2023-04-27T06:32:49;16.80;99.90
31729;DHT22;18309;43.658;1.312;2023-04-27T06:35:15;16.80;99.90
31729;DHT22;18309;43.658;1.312;2023-04-27T06:37:41;16.80;99.90
31729;DHT22;18309;43.658;1.312;2023-04-27T06:40:07;16.90;99.90
31729;DHT22;18309;43.658;1.312;2023-04-27T06:42:33;16.90;99.90
31729;DHT22;18309;43.658;1.312;2023-04-27T06:44:59;16.90;99.90
31729;DHT22;18309;43.658;1.312;2023-04-27T06:47:25;16.90;99.90
31729;DHT22;18309;43.658;1.312;2023-04-27T06:49:51;17.00;99.90
31729;DHT22;18309;43.658;1.312;2023-04-27T06:52:17;17.00;99.90
31729;DHT22;18309;43.658;1.312;2023-04-27T06:54:43;17.00;99.90
31729;DHT22;18309;43.658;1.312;2023-04-27T06:57:09;17.10;99.90
31729;DHT22;18309;43.658;1.312;2023-04-27T06:59:35;17.00;99.90
31729;DHT22;18309;43.658;1.312;2023-04-27T07:02:00;17.10;99.90
31729;DHT22;18309;43.658;1.312;2023-04-27T07:04:26;17.10;99.90
31729;DHT22;18309;43.658;1.312;2023-04-27T07:06:52;17.20;99.90
31729;DHT22;18309;43.658;1.312;2023-04-27T07:09:18;17.20;99.90
31729;DHT22;18309;43.658;1.312;2023-04-27T07:11:43;17.30;99.90
31729;DHT22;18309;43.658;1.312;2023-04-27T07:14:09;17.30;99.90
31729;DHT22;18309;43.658;1.312;2023-04-27T07:16:35;17.30;99.90
31729;DHT22;18309;43.658;1.312;2023-04-27T07:19:00;17.30;99.90
31729;DHT22;18309;43.658;1.312;2023-04-27T07:21:26;17.40;99.90
31729;DHT22;18309;43.658;1.312;2023-04-27T07:23:53;17.50;99.90
31729;DHT22;18309;43.658;1.312;2023-04-27T07:26:19;17.50;99.90
31729;DHT22;18309;43.658;1.312;2023-04-27T07:28:45;17.50;99.90
31729;DHT22;18309;43.658;1.312;2023-04-27T07:31:11;17.50;99.90
31729;DHT22;18309;43.658;1.312;2023-04-27T07:33:38;17.60;99.90
31729;DHT22;18309;43.658;1.312;2023-04-27T07:36:04;17.60;99.90
31729;DHT22;18309;43.658;1.312;2023-04-27T07:38:30;17.70;99.90
31729;DHT22;18309;43.658;1.312;2023-04-27T07:41:02;17.70;99.90
31729;DHT22;18309;43.658;1.312;2023-04-27T07:43:30;17.80;99.90
31729;DHT22;18309;43.658;1.312;2023-04-27T07:45:56;17.90;99.90
31729;DHT22;18309;43.658;1.312;2023-04-27T07:48:23;17.90;99.90
31729;DHT22;18309;43.658;1.312;2023-04-27T07:50:49;18.00;99.90
31729;DHT22;18309;43.658;1.312;2023-04-27T07:53:15;18.00;99.90
31729;DHT22;18309;43.658;1.312;2023-04-27T07:55:40;18.10;99.90
31729;DHT22;18309;43.658;1.312;2023-04-27T07:58:08;18.10;99.90
31729;DHT22;18309;43.658;1.312;2023-04-27T08:00:34;18.10;99.90
31729;DHT22;18309;43.658;1.312;2023-04-27T08:03:01;18.10;99.90
31729;DHT22;18309;43.658;1.312;2023-04-27T08:05:26;18.20;99.90
31729;DHT22;18309;43.658;1.312;2023-04-27T08:07:52;18.30;99.90
31729;DHT22;18309;43.658;1.312;2023-04-27T08:10:18;18.30;99.90
31729;DHT22;18309;43.658;1.312;2023-04-27T08:12:44;18.30;99.90
31729;DHT22;18309;43.658;1.312;2023-04-27T08:15:10;18.30;99.90
31729;DHT22;18309;43.658;1.312;2023-04-27T08:17:36;18.20;99.90
31729;DHT22;18309;43.658;1.312;2023-04-27T08:20:05;18.20;99.90
31729;DHT22;18309;43.658;1.312;2023-04-27T08:22:32;18.20;99.90
31729;DHT22;18309;43.658;1.312;2023-04-27T08:24:58;18.20;99.90
31729;DHT22;18309;43.658;1.312;2023-04-27T08:27:24;18.30;99.90
31729;DHT22;18309;43.658;1.312;2023-04-27T08:29:50;18.30;99.90
31729;DHT22;18309;43.658;1.312;2023-04-27T08:32:15;18.40;99.90
31729;DHT22;18309;43.658;1.312;2023-04-27T08:34:41;18.50;99.90
31729;DHT22;18309;43.658;1.312;2023-04-27T08:37:09;18.60;99.90
31729;DHT22;18309;43.658;1.312;2023-04-27T08:39:35;18.70;99.90
31729;DHT22;18309;43.658;1.312;2023-04-27T08:42:00;18.70;99.90
31729;DHT22;18309;43.658;1.312;2023-04-27T08:44:26;18.80;99.90
31729;DHT22;18309;43.658;1.312;2023-04-27T08:46:52;18.90;99.90
31729;DHT22;18309;43.658;1.312;2023-04-27T08:49:17;18.90;99.90
31729;DHT22;18309;43.658;1.312;2023-04-27T08:51:43;19.00;99.90
31729;DHT22;18309;43.658;1.312;2023-04-27T08:54:09;19.00;99.90
31729;DHT22;18309;43.658;1.312;2023-04-27T08:56:35;19.10;99.90
31729;DHT22;18309;43.658;1.312;2023-04-27T08:59:01;19.20;99.90
31729;DHT22;18309;43.658;1.312;2023-04-27T09:01:29;19.20;99.90
31729;DHT22;18309;43.658;1.312;2023-04-27T09:03:59;19.40;99.90
31729;DHT22;18309;43.658;1.312;2023-04-27T09:06:33;19.50;99.90
31729;DHT22;18309;43.658;1.312;2023-04-27T09:08:59;19.50;99.90
31729;DHT22;18309;43.658;1.312;2023-04-27T09:11:34;19.60;99.90
31729;DHT22;18309;43.658;1.312;2023-04-27T09:14:13;19.60;99.90
31729;DHT22;18309;43.658;1.312;2023-04-27T09:16:40;19.70;99.90
31729;DHT22;18309;43.658;1.312;2023-04-27T09:19:05;19.70;99.90
31729;DHT22;18309;43.658;1.312;2023-04-27T09:21:31;19.70;99.90
31729;DHT22;18309;43.658;1.312;2023-04-27T09:23:57;19.80;99.90
31729;DHT22;18309;43.658;1.312;2023-04-27T09:26:24;19.90;99.90
31729;DHT22;18309;43.658;1.312;2023-04-27T09:28:54;19.90;99.90
31729;DHT22;18309;43.658;1.312;2023-04-27T09:31:32;20.00;99.90
31729;DHT22;18309;43.658;1.312;2023-04-27T09:33:58;20.00;99.90
31729;DHT22;18309;43.658;1.312;2023-04-27T09:36:24;20.00;99.90
31729;DHT22;18309;43.658;1.312;2023-04-27T09:38:53;20.20;99.90
31729;DHT22;18309;43.658;1.312;2023-04-27T09:41:19;20.30;99.90
31729;DHT22;18309;43.658;1.312;2023-04-27T09:43:45;20.40;99.90
31729;DHT22;18309;43.658;1.312;2023-04-27T09:46:14;20.50;99.90
31729;DHT22;18309;43.658;1.312;2023-04-27T09:48:41;20.60;99.90
31729;DHT22;18309;43.658;1.312;2023-04-27T09:51:07;20.70;99.90
31729;DHT22;18309;43.658;1.312;2023-04-27T09:53:39;20.70;99.90
31729;DHT22;18309;43.658;1.312;2023-04-27T10:01:53;20.80;99.90
31729;DHT22;18309;43.658;1.312;2023-04-27T10:04:25;20.90;99.90
31729;DHT22;18309;43.658;1.312;2023-04-27T10:07:02;21.00;99.90
31729;DHT22;18309;43.658;1.312;2023-04-27T10:09:46;21.10;99.90
31729;DHT22;18309;43.658;1.312;2023-04-27T10:12:34;21.30;99.90
31729;DHT22;18309;43.658;1.312;2023-04-27T10:15:16;21.40;99.90
31729;DHT22;18309;43.658;1.312;2023-04-27T10:17:49;21.50;99.90
31729;DHT22;18309;43.658;1.312;2023-04-27T10:20:28;21.50;99.90
31729;DHT22;18309;43.658;1.312;2023-04-27T10:22:54;21.60;99.90
31729;DHT22;18309;43.658;1.312;2023-04-27T10:25:25;21.60;99.90
31729;DHT22;18309;43.658;1.312;2023-04-27T10:27:58;21.60;99.90
31729;DHT22;18309;43.658;1.312;2023-04-27T10:30:30;21.80;99.90
31729;DHT22;18309;43.658;1.312;2023-04-27T10:32:57;21.80;99.90
31729;DHT22;18309;43.658;1.312;2023-04-27T10:38:09;21.90;99.90
31729;DHT22;18309;43.658;1.312;2023-04-27T10:40:36;21.90;99.90
31729;DHT22;18309;43.658;1.312;2023-04-27T10:43:12;21.90;99.90
31729;DHT22;18309;43.658;1.312;2023-04-27T10:45:39;22.00;99.90
31729;DHT22;18309;43.658;1.312;2023-04-27T10:48:05;22.10;99.90
31729;DHT22;18309;43.658;1.312;2023-04-27T10:50:32;22.20;99.90
31729;DHT22;18309;43.658;1.312;2023-04-27T10:53:02;22.20;99.90
31729;DHT22;18309;43.658;1.312;2023-04-27T10:55:28;22.20;99.90
31729;DHT22;18309;43.658;1.312;2023-04-27T10:57:55;22.30;99.90
31729;DHT22;18309;43.658;1.312;2023-04-27T11:02:56;22.50;99.90
31729;DHT22;18309;43.658;1.312;2023-04-27T11:05:26;22.60;99.90
31729;DHT22;18309;43.658;1.312;2023-04-27T11:08:08;22.60;99.70
31729;DHT22;18309;43.658;1.312;2023-04-27T11:10:34;22.90;99.90
31729;DHT22;18309;43.658;1.312;2023-04-27T11:13:13;22.90;99.70
31729;DHT22;18309;43.658;1.312;2023-04-27T11:18:11;23.00;99.40
31729;DHT22;18309;43.658;1.312;2023-04-27T11:20:37;23.00;99.40
31729;DHT22;18309;43.658;1.312;2023-04-27T11:23:02;23.00;99.20
31729;DHT22;18309;43.658;1.312;2023-04-27T11:25:28;23.10;99.40
31729;DHT22;18309;43.658;1.312;2023-04-27T11:27:54;23.20;98.90
31729;DHT22;18309;43.658;1.312;2023-04-27T11:30:21;23.10;99.00
31729;DHT22;18309;43.658;1.312;2023-04-27T11:32:48;23.10;98.70
31729;DHT22;18309;43.658;1.312;2023-04-27T11:35:14;23.10;98.90
31729;DHT22;18309;43.658;1.312;2023-04-27T11:37:40;23.20;97.80
31729;DHT22;18309;43.658;1.312;2023-04-27T11:40:07;23.20;99.20
31729;DHT22;18309;43.658;1.312;2023-04-27T11:42:34;23.30;99.70
31729;DHT22;18309;43.658;1.312;2023-04-27T11:45:01;23.50;98.70
31729;DHT22;18309;43.658;1.312;2023-04-27T11:47:28;23.50;98.40
31729;DHT22;18309;43.658;1.312;2023-04-27T11:49:59;23.60;98.00
31729;DHT22;18309;43.658;1.312;2023-04-27T11:54:59;23.60;98.80
31729;DHT22;18309;43.658;1.312;2023-04-27T11:57:26;23.70;98.80
31729;DHT22;18309;43.658;1.312;2023-04-27T11:59:54;23.80;98.20
31729;DHT22;18309;43.658;1.312;2023-04-27T12:02:20;23.80;99.10
31729;DHT22;18309;43.658;1.312;2023-04-27T12:04:49;23.80;98.70
31729;DHT22;18309;43.658;1.312;2023-04-27T12:07:16;23.80;99.20
31729;DHT22;18309;43.658;1.312;2023-04-27T12:09:42;23.90;98.60
31729;DHT22;18309;43.658;1.312;2023-04-27T12:12:08;23.90;98.30
31729;DHT22;18309;43.658;1.312;2023-04-27T12:14:34;23.90;98.60
31729;DHT22;18309;43.658;1.312;2023-04-27T12:17:00;24.10;98.50
31729;DHT22;18309;43.658;1.312;2023-04-27T12:19:25;24.20;98.40
31729;DHT22;18309;43.658;1.312;2023-04-27T12:21:52;24.30;97.90
31729;DHT22;18309;43.658;1.312;2023-04-27T12:24:19;24.40;97.10
31729;DHT22;18309;43.658;1.312;2023-04-27T12:26:45;24.40;97.40
31729;DHT22;18309;43.658;1.312;2023-04-27T12:29:13;24.50;97.60
31729;DHT22;18309;43.658;1.312;2023-04-27T12:31:39;24.50;97.50
31729;DHT22;18309;43.658;1.312;2023-04-27T12:34:05;24.60;97.90
31729;DHT22;18309;43.658;1.312;2023-04-27T12:36:30;24.70;97.40
31729;DHT22;18309;43.658;1.312;2023-04-27T12:38:59;24.80;97.80
31729;DHT22;18309;43.658;1.312;2023-04-27T12:41:26;24.90;96.60
31729;DHT22;18309;43.658;1.312;2023-04-27T12:43:51;24.90;96.70
31729;DHT22;18309;43.658;1.312;2023-04-27T12:46:17;25.00;96.60
31729;DHT22;18309;43.658;1.312;2023-04-27T12:48:43;25.00;96.50
31729;DHT22;18309;43.658;1.312;2023-04-27T12:51:09;25.10;96.20
31729;DHT22;18309;43.658;1.312;2023-04-27T12:53:35;25.20;95.90
31729;DHT22;18309;43.658;1.312;2023-04-27T12:56:01;25.40;95.80
31729;DHT22;18309;43.658;1.312;2023-04-27T12:58:29;25.40;95.80
31729;DHT22;18309;43.658;1.312;2023-04-27T13:00:56;25.60;95.30
31729;DHT22;18309;43.658;1.312;2023-04-27T13:03:24;25.70;95.30
31729;DHT22;18309;43.658;1.312;2023-04-27T13:05:50;26.20;95.40
31729;DHT22;18309;43.658;1.312;2023-04-27T13:08:16;26.50;94.30
31729;DHT22;18309;43.658;1.312;2023-04-27T13:10:42;26.90;93.40
31729;DHT22;18309;43.658;1.312;2023-04-27T13:13:08;27.40;92.00
31729;DHT22;18309;43.658;1.312;2023-04-27T13:15:34;28.70;90.70
31729;DHT22;18309;43.658;1.312;2023-04-27T13:18:00;31.50;84.40
31729;DHT22;18309;43.658;1.312;2023-04-27T13:20:29;34.70;75.90
31729;DHT22;18309;43.658;1.312;2023-04-27T13:22:55;36.50;70.60
31729;DHT22;18309;43.658;1.312;2023-04-27T13:25:21;36.40;67.30
31729;DHT22;18309;43.658;1.312;2023-04-27T13:27:47;36.90;65.60
31729;DHT22;18309;43.658;1.312;2023-04-27T13:30:12;37.00;65.70
31729;DHT22;18309;43.658;1.312;2023-04-27T13:32:38;36.50;65.10
31729;DHT22;18309;43.658;1.312;2023-04-27T13:35:04;35.70;66.30
31729;DHT22;18309;43.658;1.312;2023-04-27T13:37:30;34.70;71.50
31729;DHT22;18309;43.658;1.312;2023-04-27T13:39:56;33.60;74.80
31729;DHT22;18309;43.658;1.312;2023-04-27T13:42:21;32.60;76.60
31729;DHT22;18309;43.658;1.312;2023-04-27T13:44:54;31.70;77.90
31729;DHT22;18309;43.658;1.312;2023-04-27T13:47:20;30.80;79.60
31729;DHT22;18309;43.658;1.312;2023-04-27T13:49:45;30.00;80.60
31729;DHT22;18309;43.658;1.312;2023-04-27T13:52:11;29.30;85.10
31729;DHT22;18309;43.658;1.312;2023-04-27T13:54:37;28.80;84.30
31729;DHT22;18309;43.658;1.312;2023-04-27T13:57:02;28.40;85.90
31729;DHT22;18309;43.658;1.312;2023-04-27T13:59:28;28.10;86.30
31729;DHT22;18309;43.658;1.312;2023-04-27T14:01:55;27.90;88.00
31729;DHT22;18309;43.658;1.312;2023-04-27T14:04:20;28.40;88.00
31729;DHT22;18309;43.658;1.312;2023-04-27T14:06:46;29.10;86.50
31729;DHT22;18309;43.658;1.312;2023-04-27T14:09:12;29.30;85.00
31729;DHT22;18309;43.658;1.312;2023-04-27T14:11:38;29.40;84.60
31729;DHT22;18309;43.658;1.312;2023-04-27T14:14:03;29.70;84.20
31729;DHT22;18309;43.658;1.312;2023-04-27T14:16:31;29.90;83.90
31729;DHT22;18309;43.658;1.312;2023-04-27T14:18:57;30.30;83.70
31729;DHT22;18309;43.658;1.312;2023-04-27T14:21:23;30.30;82.50
31729;DHT22;18309;43.658;1.312;2023-04-27T14:23:49;29.80;83.10
31729;DHT22;18309;43.658;1.312;2023-04-27T14:26:15;29.30;82.30
31729;DHT22;18309;43.658;1.312;2023-04-27T14:28:40;29.00;84.50
31729;DHT22;18309;43.658;1.312;2023-04-27T14:31:06;28.80;85.40
31729;DHT22;18309;43.658;1.312;2023-04-27T14:33:32;28.80;85.20
31729;DHT22;18309;43.658;1.312;2023-04-27T14:35:57;28.90;84.70
31729;DHT22;18309;43.658;1.312;2023-04-27T14:38:23;28.80;84.60
31729;DHT22;18309;43.658;1.312;2023-04-27T14:40:49;28.80;84.60
31729;DHT22;18309;43.658;1.312;2023-04-27T14:43:14;28.90;86.00
31729;DHT22;18309;43.658;1.312;2023-04-27T14:45:42;28.90;87.40
31729;DHT22;18309;43.658;1.312;2023-04-27T14:48:07;28.90;84.40
31729;DHT22;18309;43.658;1.312;2023-04-27T14:50:33;28.90;84.50
31729;DHT22;18309;43.658;1.312;2023-04-27T14:52:59;29.00;85.20
31729;DHT22;18309;43.658;1.312;2023-04-27T14:55:25;29.00;81.90
31729;DHT22;18309;43.658;1.312;2023-04-27T14:57:51;29.10;82.30
31729;DHT22;18309;43.658;1.312;2023-04-27T15:00:17;28.90;83.10
31729;DHT22;18309;43.658;1.312;2023-04-27T15:02:43;28.90;85.30
31729;DHT22;18309;43.658;1.312;2023-04-27T15:05:08;28.90;87.20
31729;DHT22;18309;43.658;1.312;2023-04-27T15:07:34;29.00;86.00
31729;DHT22;18309;43.658;1.312;2023-04-27T15:10:00;29.00;86.10
31729;DHT22;18309;43.658;1.312;2023-04-27T15:12:26;29.00;85.00
31729;DHT22;18309;43.658;1.312;2023-04-27T15:14:52;29.10;86.00
31729;DHT22;18309;43.658;1.312;2023-04-27T15:17:18;29.20;86.70
31729;DHT22;18309;43.658;1.312;2023-04-27T15:19:44;29.20;85.90
31729;DHT22;18309;43.658;1.312;2023-04-27T15:22:09;29.20;87.30
31729;DHT22;18309;43.658;1.312;2023-04-27T15:24:35;29.10;86.30
31729;DHT22;18309;43.658;1.312;2023-04-27T15:27:01;29.00;85.30
31729;DHT22;18309;43.658;1.312;2023-04-27T15:29:27;29.00;85.50
31729;DHT22;18309;43.658;1.312;2023-04-27T15:31:53;28.90;85.60
31729;DHT22;18309;43.658;1.312;2023-04-27T15:34:18;28.80;87.40
31729;DHT22;18309;43.658;1.312;2023-04-27T15:36:44;28.70;87.80
31729;DHT22;18309;43.658;1.312;2023-04-27T15:39:10;28.70;86.10
31729;DHT22;18309;43.658;1.312;2023-04-27T15:41:35;28.80;86.60